sensor_id;sensor_type;location;lat;lon;timestamp;P1;durP1;ratioP1;P2;durP2;ratioP2
16994;SDS011;8614;48.522;9.206;2022-10-23T00:01:46;14.00;;;12.90;;
16994;SDS011;8614;48.522;9.206;2022-10-23T00:04:15;14.80;;;13.57;;
16994;SDS011;8614;48.522;9.206;2022-10-23T00:06:43;14.63;;;13.43;;
16994;SDS011;8614;48.522;9.206;2022-10-23T00:09:10;14.13;;;12.97;;
16994;SDS011;8614;48.522;9.206;2022-10-23T00:11:40;14.13;;;12.93;;
16994;SDS011;8614;48.522;9.206;2022-10-23T00:14:08;14.17;;;13.17;;
16994;SDS011;8614;48.522;9.206;2022-10-23T00:16:36;14.23;;;13.13;;
16994;SDS011;8614;48.522;9.206;2022-10-23T00:19:04;13.87;;;12.87;;
16994;SDS011;8614;48.522;9.206;2022-10-23T00:21:32;14.27;;;13.20;;
16994;SDS011;8614;48.522;9.206;2022-10-23T00:23:58;16.17;;;13.93;;
16994;SDS011;8614;48.522;9.206;2022-10-23T00:26:25;15.03;;;13.57;;
16994;SDS011;8614;48.522;9.206;2022-10-23T00:28:53;14.27;;;12.87;;
16994;SDS011;8614;48.522;9.206;2022-10-23T00:31:20;14.40;;;13.23;;
16994;SDS011;8614;48.522;9.206;2022-10-23T00:33:49;12.97;;;12.00;;
16994;SDS011;8614;48.522;9.206;2022-10-23T00:36:18;14.40;;;13.20;;
16994;SDS011;8614;48.522;9.206;2022-10-23T00:38:46;14.80;;;13.57;;
16994;SDS011;8614;48.522;9.206;2022-10-23T00:41:14;15.00;;;13.70;;
16994;SDS011;8614;48.522;9.206;2022-10-23T00:43:56;15.63;;;14.13;;
16994;SDS011;8614;48.522;9.206;2022-10-23T00:46:25;15.47;;;14.27;;
16994;SDS011;8614;48.522;9.206;2022-10-23T00:48:52;15.40;;;14.10;;
16994;SDS011;8614;48.522;9.206;2022-10-23T00:51:20;14.97;;;13.87;;
16994;SDS011;8614;48.522;9.206;2022-10-23T00:53:48;15.20;;;13.90;;
16994;SDS011;8614;48.522;9.206;2022-10-23T00:56:20;14.60;;;13.57;;
16994;SDS011;8614;48.522;9.206;2022-10-23T00:58:47;15.63;;;14.20;;
16994;SDS011;8614;48.522;9.206;2022-10-23T01:01:14;15.57;;;14.27;;
16994;SDS011;8614;48.522;9.206;2022-10-23T01:03:43;14.43;;;13.37;;
16994;SDS011;8614;48.522;9.206;2022-10-23T01:06:11;14.17;;;13.17;;
16994;SDS011;8614;48.522;9.206;2022-10-23T01:08:44;14.40;;;13.13;;
16994;SDS011;8614;48.522;9.206;2022-10-23T01:11:17;14.67;;;13.30;;
16994;SDS011;8614;48.522;9.206;2022-10-23T01:13:52;15.07;;;13.80;;
16994;SDS011;8614;48.522;9.206;2022-10-23T01:16:29;14.43;;;13.33;;
16994;SDS011;8614;48.522;9.206;2022-10-23T01:19:03;14.30;;;13.10;;
16994;SDS011;8614;48.522;9.206;2022-10-23T01:21:38;14.90;;;13.73;;
16994;SDS011;8614;48.522;9.206;2022-10-23T01:24:16;15.50;;;14.30;;
16994;SDS011;8614;48.522;9.206;2022-10-23T01:26:59;14.83;;;13.63;;
16994;SDS011;8614;48.522;9.206;2022-10-23T01:29:42;13.37;;;12.47;;
16994;SDS011;8614;48.522;9.206;2022-10-23T01:32:12;13.17;;;12.27;;
16994;SDS011;8614;48.522;9.206;2022-10-23T01:34:43;14.30;;;13.20;;
16994;SDS011;8614;48.522;9.206;2022-10-23T01:37:15;14.13;;;13.10;;
16994;SDS011;8614;48.522;9.206;2022-10-23T01:39:47;13.50;;;12.50;;
16994;SDS011;8614;48.522;9.206;2022-10-23T01:42:19;13.93;;;12.93;;
16994;SDS011;8614;48.522;9.206;2022-10-23T01:44:50;13.33;;;12.43;;
16994;SDS011;8614;48.522;9.206;2022-10-23T01:47:24;14.00;;;12.97;;
16994;SDS011;8614;48.522;9.206;2022-10-23T01:49:59;14.47;;;13.37;;
16994;SDS011;8614;48.522;9.206;2022-10-23T01:52:28;15.43;;;13.70;;
16994;SDS011;8614;48.522;9.206;2022-10-23T01:54:57;14.80;;;13.40;;
16994;SDS011;8614;48.522;9.206;2022-10-23T01:57:29;14.93;;;13.73;;
16994;SDS011;8614;48.522;9.206;2022-10-23T01:59:59;14.90;;;13.70;;
16994;SDS011;8614;48.522;9.206;2022-10-23T02:02:29;14.43;;;13.33;;
16994;SDS011;8614;48.522;9.206;2022-10-23T02:05:01;14.50;;;13.40;;
16994;SDS011;8614;48.522;9.206;2022-10-23T02:07:32;15.23;;;13.80;;
16994;SDS011;8614;48.522;9.206;2022-10-23T02:10:09;14.77;;;13.70;;
16994;SDS011;8614;48.522;9.206;2022-10-23T02:12:41;14.40;;;13.30;;
16994;SDS011;8614;48.522;9.206;2022-10-23T02:15:17;15.23;;;13.93;;
16994;SDS011;8614;48.522;9.206;2022-10-23T02:17:50;14.70;;;13.60;;
16994;SDS011;8614;48.522;9.206;2022-10-23T02:20:27;15.43;;;14.13;;
16994;SDS011;8614;48.522;9.206;2022-10-23T02:23:00;16.63;;;14.93;;
16994;SDS011;8614;48.522;9.206;2022-10-23T02:25:34;15.40;;;14.20;;
16994;SDS011;8614;48.522;9.206;2022-10-23T02:28:12;16.30;;;14.90;;
16994;SDS011;8614;48.522;9.206;2022-10-23T02:30:45;15.83;;;14.40;;
16994;SDS011;8614;48.522;9.206;2022-10-23T02:33:14;15.40;;;14.20;;
16994;SDS011;8614;48.522;9.206;2022-10-23T02:35:41;15.20;;;14.10;;
16994;SDS011;8614;48.522;9.206;2022-10-23T02:38:27;15.13;;;13.93;;
16994;SDS011;8614;48.522;9.206;2022-10-23T02:40:56;14.10;;;13.00;;
16994;SDS011;8614;48.522;9.206;2022-10-23T02:43:31;15.70;;;14.40;;
16994;SDS011;8614;48.522;9.206;2022-10-23T02:46:03;14.53;;;13.33;;
16994;SDS011;8614;48.522;9.206;2022-10-23T02:48:37;14.73;;;13.53;;
16994;SDS011;8614;48.522;9.206;2022-10-23T02:51:10;14.10;;;13.20;;
16994;SDS011;8614;48.522;9.206;2022-10-23T02:53:44;14.30;;;13.30;;
16994;SDS011;8614;48.522;9.206;2022-10-23T02:56:23;14.53;;;13.43;;
16994;SDS011;8614;48.522;9.206;2022-10-23T02:58:58;14.47;;;13.47;;
16994;SDS011;8614;48.522;9.206;2022-10-23T03:01:32;14.13;;;13.13;;
16994;SDS011;8614;48.522;9.206;2022-10-23T03:04:03;14.87;;;13.83;;
16994;SDS011;8614;48.522;9.206;2022-10-23T03:06:32;14.40;;;13.30;;
16994;SDS011;8614;48.522;9.206;2022-10-23T03:09:04;14.30;;;13.30;;
16994;SDS011;8614;48.522;9.206;2022-10-23T03:11:32;14.13;;;13.13;;
16994;SDS011;8614;48.522;9.206;2022-10-23T03:14:01;15.00;;;13.80;;
16994;SDS011;8614;48.522;9.206;2022-10-23T03:16:28;14.43;;;13.43;;
16994;SDS011;8614;48.522;9.206;2022-10-23T03:18:55;14.80;;;13.73;;
16994;SDS011;8614;48.522;9.206;2022-10-23T03:21:22;14.87;;;13.87;;
16994;SDS011;8614;48.522;9.206;2022-10-23T03:23:51;13.90;;;13.00;;
16994;SDS011;8614;48.522;9.206;2022-10-23T03:26:26;14.17;;;13.17;;
16994;SDS011;8614;48.522;9.206;2022-10-23T03:28:53;14.33;;;13.40;;
16994;SDS011;8614;48.522;9.206;2022-10-23T03:31:23;15.03;;;13.97;;
16994;SDS011;8614;48.522;9.206;2022-10-23T03:33:55;10.43;;;9.43;;
16994;SDS011;8614;48.522;9.206;2022-10-23T03:36:22;10.30;;;9.50;;
16994;SDS011;8614;48.522;9.206;2022-10-23T03:38:49;11.23;;;10.33;;
16994;SDS011;8614;48.522;9.206;2022-10-23T03:41:16;11.17;;;10.13;;
16994;SDS011;8614;48.522;9.206;2022-10-23T03:43:43;9.10;;;8.20;;
16994;SDS011;8614;48.522;9.206;2022-10-23T03:46:10;10.47;;;9.67;;
16994;SDS011;8614;48.522;9.206;2022-10-23T03:48:38;9.50;;;8.80;;
16994;SDS011;8614;48.522;9.206;2022-10-23T03:51:06;10.23;;;9.43;;
16994;SDS011;8614;48.522;9.206;2022-10-23T03:53:33;9.77;;;8.97;;
16994;SDS011;8614;48.522;9.206;2022-10-23T03:56:02;10.40;;;9.60;;
16994;SDS011;8614;48.522;9.206;2022-10-23T03:58:29;14.47;;;13.57;;
16994;SDS011;8614;48.522;9.206;2022-10-23T04:00:56;10.53;;;9.73;;
16994;SDS011;8614;48.522;9.206;2022-10-23T04:03:23;12.30;;;11.43;;
16994;SDS011;8614;48.522;9.206;2022-10-23T04:05:51;11.33;;;8.00;;
16994;SDS011;8614;48.522;9.206;2022-10-23T04:08:20;11.73;;;9.93;;
16994;SDS011;8614;48.522;9.206;2022-10-23T04:10:51;13.67;;;12.77;;
16994;SDS011;8614;48.522;9.206;2022-10-23T04:13:24;13.23;;;12.43;;
16994;SDS011;8614;48.522;9.206;2022-10-23T04:15:51;5.70;;;5.07;;
16994;SDS011;8614;48.522;9.206;2022-10-23T04:18:18;8.30;;;7.50;;
16994;SDS011;8614;48.522;9.206;2022-10-23T04:20:46;5.93;;;5.33;;
16994;SDS011;8614;48.522;9.206;2022-10-23T04:23:15;13.00;;;12.00;;
16994;SDS011;8614;48.522;9.206;2022-10-23T04:25:44;8.17;;;7.33;;
16994;SDS011;8614;48.522;9.206;2022-10-23T04:28:11;9.33;;;8.63;;
16994;SDS011;8614;48.522;9.206;2022-10-23T04:30:39;9.70;;;8.90;;
16994;SDS011;8614;48.522;9.206;2022-10-23T04:33:09;7.37;;;6.47;;
16994;SDS011;8614;48.522;9.206;2022-10-23T04:35:36;8.10;;;7.50;;
16994;SDS011;8614;48.522;9.206;2022-10-23T04:38:03;10.33;;;9.63;;
16994;SDS011;8614;48.522;9.206;2022-10-23T04:40:31;11.90;;;10.90;;
16994;SDS011;8614;48.522;9.206;2022-10-23T04:42:58;7.17;;;6.47;;
16994;SDS011;8614;48.522;9.206;2022-10-23T04:45:30;11.00;;;10.07;;
16994;SDS011;8614;48.522;9.206;2022-10-23T04:47:57;7.63;;;7.00;;
16994;SDS011;8614;48.522;9.206;2022-10-23T04:50:25;6.47;;;5.87;;
16994;SDS011;8614;48.522;9.206;2022-10-23T04:53:16;6.33;;;5.30;;
16994;SDS011;8614;48.522;9.206;2022-10-23T04:56:12;7.90;;;7.20;;
16994;SDS011;8614;48.522;9.206;2022-10-23T04:58:58;7.03;;;6.33;;
16994;SDS011;8614;48.522;9.206;2022-10-23T05:01:26;6.73;;;6.10;;
16994;SDS011;8614;48.522;9.206;2022-10-23T05:03:53;5.33;;;4.83;;
16994;SDS011;8614;48.522;9.206;2022-10-23T05:06:22;5.57;;;4.97;;
16994;SDS011;8614;48.522;9.206;2022-10-23T05:09:08;5.20;;;4.80;;
16994;SDS011;8614;48.522;9.206;2022-10-23T05:11:43;4.77;;;4.37;;
16994;SDS011;8614;48.522;9.206;2022-10-23T05:14:12;5.73;;;5.13;;
16994;SDS011;8614;48.522;9.206;2022-10-23T05:16:40;5.70;;;5.10;;
16994;SDS011;8614;48.522;9.206;2022-10-23T05:19:12;5.50;;;5.00;;
16994;SDS011;8614;48.522;9.206;2022-10-23T05:21:43;6.53;;;5.70;;
16994;SDS011;8614;48.522;9.206;2022-10-23T05:24:11;5.93;;;5.33;;
16994;SDS011;8614;48.522;9.206;2022-10-23T05:26:38;6.90;;;5.63;;
16994;SDS011;8614;48.522;9.206;2022-10-23T05:29:07;6.03;;;5.43;;
16994;SDS011;8614;48.522;9.206;2022-10-23T05:31:34;6.17;;;5.57;;
16994;SDS011;8614;48.522;9.206;2022-10-23T05:34:08;6.37;;;5.87;;
16994;SDS011;8614;48.522;9.206;2022-10-23T05:36:40;8.03;;;7.37;;
16994;SDS011;8614;48.522;9.206;2022-10-23T05:39:07;8.13;;;7.43;;
16994;SDS011;8614;48.522;9.206;2022-10-23T05:41:34;7.37;;;6.87;;
16994;SDS011;8614;48.522;9.206;2022-10-23T05:44:01;8.27;;;7.63;;
16994;SDS011;8614;48.522;9.206;2022-10-23T05:46:48;8.90;;;8.20;;
16994;SDS011;8614;48.522;9.206;2022-10-23T05:49:34;13.70;;;12.70;;
16994;SDS011;8614;48.522;9.206;2022-10-23T05:52:24;15.43;;;14.43;;
16994;SDS011;8614;48.522;9.206;2022-10-23T05:55:24;14.77;;;13.87;;
16994;SDS011;8614;48.522;9.206;2022-10-23T05:58:29;14.60;;;13.70;;
16994;SDS011;8614;48.522;9.206;2022-10-23T06:01:26;15.70;;;14.70;;
16994;SDS011;8614;48.522;9.206;2022-10-23T06:04:01;15.10;;;14.20;;
16994;SDS011;8614;48.522;9.206;2022-10-23T06:06:48;9.10;;;8.37;;
16994;SDS011;8614;48.522;9.206;2022-10-23T06:09:16;7.73;;;6.37;;
16994;SDS011;8614;48.522;9.206;2022-10-23T06:11:44;6.10;;;5.60;;
16994;SDS011;8614;48.522;9.206;2022-10-23T06:14:16;7.10;;;6.50;;
16994;SDS011;8614;48.522;9.206;2022-10-23T06:16:43;8.10;;;7.40;;
16994;SDS011;8614;48.522;9.206;2022-10-23T06:19:12;6.90;;;6.23;;
16994;SDS011;8614;48.522;9.206;2022-10-23T06:21:40;8.43;;;7.83;;
16994;SDS011;8614;48.522;9.206;2022-10-23T06:24:10;5.77;;;5.27;;
16994;SDS011;8614;48.522;9.206;2022-10-23T06:27:06;8.03;;;7.33;;
16994;SDS011;8614;48.522;9.206;2022-10-23T06:29:40;7.07;;;6.47;;
16994;SDS011;8614;48.522;9.206;2022-10-23T06:32:07;9.13;;;8.43;;
16994;SDS011;8614;48.522;9.206;2022-10-23T06:34:36;15.83;;;14.80;;
16994;SDS011;8614;48.522;9.206;2022-10-23T06:37:06;7.10;;;6.37;;
16994;SDS011;8614;48.522;9.206;2022-10-23T06:39:53;9.30;;;8.60;;
16994;SDS011;8614;48.522;9.206;2022-10-23T06:42:28;7.83;;;7.17;;
16994;SDS011;8614;48.522;9.206;2022-10-23T06:44:55;7.83;;;7.23;;
16994;SDS011;8614;48.522;9.206;2022-10-23T06:47:48;6.73;;;6.13;;
16994;SDS011;8614;48.522;9.206;2022-10-23T06:50:36;5.63;;;5.13;;
16994;SDS011;8614;48.522;9.206;2022-10-23T06:53:09;13.90;;;13.00;;
16994;SDS011;8614;48.522;9.206;2022-10-23T06:55:42;9.87;;;9.17;;
16994;SDS011;8614;48.522;9.206;2022-10-23T06:58:08;10.10;;;9.40;;
16994;SDS011;8614;48.522;9.206;2022-10-23T07:00:46;14.40;;;13.50;;
16994;SDS011;8614;48.522;9.206;2022-10-23T07:03:13;12.13;;;11.33;;
16994;SDS011;8614;48.522;9.206;2022-10-23T07:05:41;13.70;;;12.83;;
16994;SDS011;8614;48.522;9.206;2022-10-23T07:08:13;12.87;;;11.97;;
16994;SDS011;8614;48.522;9.206;2022-10-23T07:10:43;6.27;;;5.20;;
16994;SDS011;8614;48.522;9.206;2022-10-23T07:13:10;5.80;;;5.20;;
16994;SDS011;8614;48.522;9.206;2022-10-23T07:15:57;5.20;;;4.70;;
16994;SDS011;8614;48.522;9.206;2022-10-23T07:18:26;8.30;;;7.50;;
16994;SDS011;8614;48.522;9.206;2022-10-23T07:21:14;13.97;;;13.07;;
16994;SDS011;8614;48.522;9.206;2022-10-23T07:23:42;12.97;;;12.17;;
16994;SDS011;8614;48.522;9.206;2022-10-23T07:26:11;12.47;;;11.70;;
16994;SDS011;8614;48.522;9.206;2022-10-23T07:28:40;10.87;;;10.07;;
16994;SDS011;8614;48.522;9.206;2022-10-23T07:31:10;10.03;;;9.30;;
16994;SDS011;8614;48.522;9.206;2022-10-23T07:34:04;8.83;;;8.23;;
16994;SDS011;8614;48.522;9.206;2022-10-23T07:36:32;8.73;;;8.13;;
16994;SDS011;8614;48.522;9.206;2022-10-23T07:38:59;8.53;;;7.93;;
16994;SDS011;8614;48.522;9.206;2022-10-23T07:41:26;7.00;;;6.50;;
16994;SDS011;8614;48.522;9.206;2022-10-23T07:43:53;6.00;;;5.50;;
16994;SDS011;8614;48.522;9.206;2022-10-23T07:46:20;5.97;;;4.70;;
16994;SDS011;8614;48.522;9.206;2022-10-23T07:48:48;4.70;;;4.30;;
16994;SDS011;8614;48.522;9.206;2022-10-23T07:51:15;11.40;;;10.50;;
16994;SDS011;8614;48.522;9.206;2022-10-23T07:53:51;11.90;;;11.20;;
16994;SDS011;8614;48.522;9.206;2022-10-23T07:56:44;12.23;;;11.53;;
16994;SDS011;8614;48.522;9.206;2022-10-23T07:59:32;11.50;;;10.70;;
16994;SDS011;8614;48.522;9.206;2022-10-23T08:02:03;11.50;;;10.70;;
16994;SDS011;8614;48.522;9.206;2022-10-23T08:04:35;11.53;;;10.83;;
16994;SDS011;8614;48.522;9.206;2022-10-23T08:07:21;4.50;;;4.10;;
16994;SDS011;8614;48.522;9.206;2022-10-23T08:09:51;5.63;;;4.87;;
16994;SDS011;8614;48.522;9.206;2022-10-23T08:12:17;4.53;;;4.00;;
16994;SDS011;8614;48.522;9.206;2022-10-23T08:14:47;5.70;;;3.77;;
16994;SDS011;8614;48.522;9.206;2022-10-23T08:17:15;3.97;;;3.67;;
16994;SDS011;8614;48.522;9.206;2022-10-23T08:20:05;3.80;;;3.50;;
16994;SDS011;8614;48.522;9.206;2022-10-23T08:22:41;3.80;;;3.40;;
16994;SDS011;8614;48.522;9.206;2022-10-23T08:25:11;5.30;;;4.90;;
16994;SDS011;8614;48.522;9.206;2022-10-23T08:27:37;3.63;;;3.17;;
16994;SDS011;8614;48.522;9.206;2022-10-23T08:30:05;4.33;;;4.00;;
16994;SDS011;8614;48.522;9.206;2022-10-23T08:32:32;3.60;;;3.30;;
16994;SDS011;8614;48.522;9.206;2022-10-23T08:35:01;4.00;;;3.60;;
16994;SDS011;8614;48.522;9.206;2022-10-23T08:37:30;6.50;;;6.10;;
16994;SDS011;8614;48.522;9.206;2022-10-23T08:39:57;8.20;;;7.50;;
16994;SDS011;8614;48.522;9.206;2022-10-23T08:42:45;3.77;;;3.47;;
16994;SDS011;8614;48.522;9.206;2022-10-23T08:45:20;3.47;;;3.20;;
16994;SDS011;8614;48.522;9.206;2022-10-23T08:48:03;4.10;;;3.70;;
16994;SDS011;8614;48.522;9.206;2022-10-23T08:51:04;5.07;;;4.67;;
16994;SDS011;8614;48.522;9.206;2022-10-23T08:53:38;3.70;;;3.40;;
16994;SDS011;8614;48.522;9.206;2022-10-23T08:56:11;3.40;;;2.97;;
16994;SDS011;8614;48.522;9.206;2022-10-23T08:58:53;3.83;;;3.27;;
16994;SDS011;8614;48.522;9.206;2022-10-23T09:01:30;5.00;;;4.60;;
16994;SDS011;8614;48.522;9.206;2022-10-23T09:04:02;5.37;;;3.50;;
16994;SDS011;8614;48.522;9.206;2022-10-23T09:06:32;3.33;;;3.03;;
16994;SDS011;8614;48.522;9.206;2022-10-23T09:09:07;6.73;;;6.33;;
16994;SDS011;8614;48.522;9.206;2022-10-23T09:11:48;4.97;;;3.77;;
16994;SDS011;8614;48.522;9.206;2022-10-23T09:14:33;6.77;;;4.17;;
16994;SDS011;8614;48.522;9.206;2022-10-23T09:17:20;4.43;;;3.00;;
16994;SDS011;8614;48.522;9.206;2022-10-23T09:19:52;8.07;;;7.57;;
16994;SDS011;8614;48.522;9.206;2022-10-23T09:22:22;3.50;;;3.27;;
16994;SDS011;8614;48.522;9.206;2022-10-23T09:24:49;2.77;;;2.60;;
16994;SDS011;8614;48.522;9.206;2022-10-23T09:27:16;2.90;;;2.70;;
16994;SDS011;8614;48.522;9.206;2022-10-23T09:29:48;5.63;;;5.23;;
16994;SDS011;8614;48.522;9.206;2022-10-23T09:32:16;3.57;;;2.70;;
16994;SDS011;8614;48.522;9.206;2022-10-23T09:34:52;2.67;;;2.47;;
16994;SDS011;8614;48.522;9.206;2022-10-23T09:37:21;3.53;;;2.60;;
16994;SDS011;8614;48.522;9.206;2022-10-23T09:39:59;2.90;;;2.70;;
16994;SDS011;8614;48.522;9.206;2022-10-23T09:42:48;2.90;;;2.70;;
16994;SDS011;8614;48.522;9.206;2022-10-23T09:45:21;2.40;;;2.20;;
16994;SDS011;8614;48.522;9.206;2022-10-23T09:48:01;3.77;;;3.47;;
16994;SDS011;8614;48.522;9.206;2022-10-23T09:50:29;5.67;;;5.17;;
16994;SDS011;8614;48.522;9.206;2022-10-23T09:52:56;6.80;;;6.20;;
16994;SDS011;8614;48.522;9.206;2022-10-23T09:55:24;6.70;;;6.30;;
16994;SDS011;8614;48.522;9.206;2022-10-23T09:57:51;6.53;;;6.10;;
16994;SDS011;8614;48.522;9.206;2022-10-23T10:00:22;5.20;;;4.90;;
16994;SDS011;8614;48.522;9.206;2022-10-23T10:02:54;2.23;;;2.13;;
16994;SDS011;8614;48.522;9.206;2022-10-23T10:05:36;3.27;;;2.40;;
16994;SDS011;8614;48.522;9.206;2022-10-23T10:08:11;3.47;;;2.43;;
16994;SDS011;8614;48.522;9.206;2022-10-23T10:10:43;2.60;;;2.40;;
16994;SDS011;8614;48.522;9.206;2022-10-23T10:13:20;2.40;;;2.30;;
16994;SDS011;8614;48.522;9.206;2022-10-23T10:15:59;2.60;;;2.40;;
16994;SDS011;8614;48.522;9.206;2022-10-23T10:18:34;2.60;;;2.40;;
16994;SDS011;8614;48.522;9.206;2022-10-23T10:21:08;2.50;;;2.30;;
16994;SDS011;8614;48.522;9.206;2022-10-23T10:23:42;2.57;;;2.37;;
16994;SDS011;8614;48.522;9.206;2022-10-23T10:26:14;2.37;;;2.23;;
16994;SDS011;8614;48.522;9.206;2022-10-23T10:28:58;3.20;;;2.50;;
16994;SDS011;8614;48.522;9.206;2022-10-23T10:31:38;7.03;;;6.63;;
16994;SDS011;8614;48.522;9.206;2022-10-23T10:34:16;8.17;;;7.67;;
16994;SDS011;8614;48.522;9.206;2022-10-23T10:36:49;6.87;;;6.37;;
16994;SDS011;8614;48.522;9.206;2022-10-23T10:39:23;6.57;;;6.17;;
16994;SDS011;8614;48.522;9.206;2022-10-23T10:45:00;5.80;;;5.40;;
16994;SDS011;8614;48.522;9.206;2022-10-23T10:47:42;5.60;;;5.30;;
16994;SDS011;8614;48.522;9.206;2022-10-23T10:50:23;5.20;;;4.90;;
16994;SDS011;8614;48.522;9.206;2022-10-23T10:53:13;5.70;;;5.40;;
16994;SDS011;8614;48.522;9.206;2022-10-23T10:55:48;5.80;;;5.40;;
16994;SDS011;8614;48.522;9.206;2022-10-23T10:58:19;5.10;;;4.80;;
16994;SDS011;8614;48.522;9.206;2022-10-23T11:00:51;5.23;;;4.93;;
16994;SDS011;8614;48.522;9.206;2022-10-23T11:03:26;5.40;;;5.00;;
16994;SDS011;8614;48.522;9.206;2022-10-23T11:05:58;5.63;;;5.33;;
16994;SDS011;8614;48.522;9.206;2022-10-23T11:08:31;4.00;;;3.80;;
16994;SDS011;8614;48.522;9.206;2022-10-23T11:11:02;4.27;;;4.07;;
16994;SDS011;8614;48.522;9.206;2022-10-23T11:13:33;4.70;;;4.40;;
16994;SDS011;8614;48.522;9.206;2022-10-23T11:16:03;3.93;;;3.73;;
16994;SDS011;8614;48.522;9.206;2022-10-23T11:18:42;2.40;;;2.30;;
16994;SDS011;8614;48.522;9.206;2022-10-23T11:21:18;2.80;;;2.60;;
16994;SDS011;8614;48.522;9.206;2022-10-23T11:23:58;4.53;;;4.23;;
16994;SDS011;8614;48.522;9.206;2022-10-23T11:26:40;5.67;;;5.37;;
16994;SDS011;8614;48.522;9.206;2022-10-23T11:29:28;6.57;;;6.17;;
16994;SDS011;8614;48.522;9.206;2022-10-23T11:35:32;6.40;;;5.90;;
16994;SDS011;8614;48.522;9.206;2022-10-23T11:38:09;5.43;;;5.07;;
16994;SDS011;8614;48.522;9.206;2022-10-23T11:40:42;5.10;;;4.73;;
16994;SDS011;8614;48.522;9.206;2022-10-23T11:43:10;6.30;;;5.90;;
16994;SDS011;8614;48.522;9.206;2022-10-23T11:45:38;4.70;;;4.40;;
16994;SDS011;8614;48.522;9.206;2022-10-23T11:48:18;5.70;;;5.30;;
16994;SDS011;8614;48.522;9.206;2022-10-23T11:50:52;5.63;;;5.33;;
16994;SDS011;8614;48.522;9.206;2022-10-23T11:53:25;4.60;;;4.30;;
16994;SDS011;8614;48.522;9.206;2022-10-23T11:56:02;5.10;;;4.80;;
16994;SDS011;8614;48.522;9.206;2022-10-23T11:58:42;4.47;;;4.20;;
16994;SDS011;8614;48.522;9.206;2022-10-23T12:04:05;2.27;;;2.17;;
16994;SDS011;8614;48.522;9.206;2022-10-23T12:06:48;2.20;;;2.00;;
16994;SDS011;8614;48.522;9.206;2022-10-23T12:09:23;2.10;;;2.00;;
16994;SDS011;8614;48.522;9.206;2022-10-23T12:14:53;6.27;;;5.97;;
16994;SDS011;8614;48.522;9.206;2022-10-23T12:17:32;5.60;;;5.30;;
16994;SDS011;8614;48.522;9.206;2022-10-23T12:23:05;5.67;;;5.37;;
16994;SDS011;8614;48.522;9.206;2022-10-23T12:25:44;4.77;;;4.57;;
16994;SDS011;8614;48.522;9.206;2022-10-23T12:40:31;5.40;;;5.10;;
16994;SDS011;8614;48.522;9.206;2022-10-23T12:42:59;5.00;;;4.60;;
16994;SDS011;8614;48.522;9.206;2022-10-23T12:45:27;4.67;;;4.37;;
16994;SDS011;8614;48.522;9.206;2022-10-23T12:47:55;6.60;;;6.20;;
16994;SDS011;8614;48.522;9.206;2022-10-23T12:50:24;4.97;;;4.67;;
16994;SDS011;8614;48.522;9.206;2022-10-23T12:52:53;5.60;;;5.27;;
16994;SDS011;8614;48.522;9.206;2022-10-23T12:55:21;7.23;;;6.83;;
16994;SDS011;8614;48.522;9.206;2022-10-23T13:04:38;7.63;;;7.23;;
16994;SDS011;8614;48.522;9.206;2022-10-23T13:07:06;8.60;;;8.10;;
16994;SDS011;8614;48.522;9.206;2022-10-23T13:09:39;7.00;;;6.60;;
16994;SDS011;8614;48.522;9.206;2022-10-23T13:12:17;7.77;;;7.33;;
16994;SDS011;8614;48.522;9.206;2022-10-23T13:14:56;8.10;;;7.50;;
16994;SDS011;8614;48.522;9.206;2022-10-23T13:17:36;7.43;;;6.93;;
16994;SDS011;8614;48.522;9.206;2022-10-23T13:22:53;6.50;;;6.10;;
16994;SDS011;8614;48.522;9.206;2022-10-23T13:30:56;6.53;;;6.13;;
16994;SDS011;8614;48.522;9.206;2022-10-23T13:37:18;7.33;;;6.83;;
16994;SDS011;8614;48.522;9.206;2022-10-23T13:44:49;7.30;;;6.80;;
16994;SDS011;8614;48.522;9.206;2022-10-23T14:04:02;8.33;;;7.83;;
16994;SDS011;8614;48.522;9.206;2022-10-23T14:09:42;3.73;;;2.90;;
16994;SDS011;8614;48.522;9.206;2022-10-23T14:11:09;4.03;;;3.70;;
16994;SDS011;8614;48.522;9.206;2022-10-23T14:13:37;4.47;;;4.00;;
16994;SDS011;8614;48.522;9.206;2022-10-23T14:16:05;4.63;;;4.20;;
16994;SDS011;8614;48.522;9.206;2022-10-23T14:18:33;5.23;;;4.00;;
16994;SDS011;8614;48.522;9.206;2022-10-23T14:21:00;3.73;;;3.43;;
16994;SDS011;8614;48.522;9.206;2022-10-23T14:23:27;5.23;;;4.80;;
16994;SDS011;8614;48.522;9.206;2022-10-23T14:25:59;3.10;;;2.80;;
16994;SDS011;8614;48.522;9.206;2022-10-23T14:28:27;3.83;;;3.20;;
16994;SDS011;8614;48.522;9.206;2022-10-23T14:30:54;3.27;;;2.97;;
16994;SDS011;8614;48.522;9.206;2022-10-23T14:33:22;4.40;;;3.60;;
16994;SDS011;8614;48.522;9.206;2022-10-23T14:35:50;3.40;;;3.07;;
16994;SDS011;8614;48.522;9.206;2022-10-23T14:38:17;3.27;;;2.83;;
16994;SDS011;8614;48.522;9.206;2022-10-23T14:40:44;2.93;;;2.63;;
16994;SDS011;8614;48.522;9.206;2022-10-23T14:43:11;2.83;;;2.63;;
16994;SDS011;8614;48.522;9.206;2022-10-23T14:45:38;2.60;;;2.40;;
16994;SDS011;8614;48.522;9.206;2022-10-23T14:48:05;2.67;;;2.47;;
16994;SDS011;8614;48.522;9.206;2022-10-23T14:50:33;2.80;;;2.53;;
16994;SDS011;8614;48.522;9.206;2022-10-23T14:53:02;4.10;;;3.80;;
16994;SDS011;8614;48.522;9.206;2022-10-23T14:55:31;5.00;;;4.70;;
16994;SDS011;8614;48.522;9.206;2022-10-23T14:57:58;4.40;;;4.10;;
16994;SDS011;8614;48.522;9.206;2022-10-23T15:00:25;4.83;;;4.53;;
16994;SDS011;8614;48.522;9.206;2022-10-23T15:02:52;4.40;;;4.10;;
16994;SDS011;8614;48.522;9.206;2022-10-23T15:05:19;4.43;;;4.13;;
16994;SDS011;8614;48.522;9.206;2022-10-23T15:07:47;3.60;;;3.40;;
16994;SDS011;8614;48.522;9.206;2022-10-23T15:10:14;3.53;;;3.23;;
16994;SDS011;8614;48.522;9.206;2022-10-23T15:12:41;3.47;;;3.27;;
16994;SDS011;8614;48.522;9.206;2022-10-23T15:15:08;4.27;;;4.00;;
16994;SDS011;8614;48.522;9.206;2022-10-23T15:17:35;5.57;;;5.27;;
16994;SDS011;8614;48.522;9.206;2022-10-23T15:20:03;6.50;;;6.10;;
16994;SDS011;8614;48.522;9.206;2022-10-23T15:22:32;7.13;;;6.73;;
16994;SDS011;8614;48.522;9.206;2022-10-23T15:25:00;2.80;;;2.60;;
16994;SDS011;8614;48.522;9.206;2022-10-23T15:27:27;3.00;;;2.80;;
16994;SDS011;8614;48.522;9.206;2022-10-23T15:29:53;5.17;;;4.77;;
16994;SDS011;8614;48.522;9.206;2022-10-23T15:32:20;7.57;;;7.00;;
16994;SDS011;8614;48.522;9.206;2022-10-23T15:34:47;7.70;;;7.20;;
16994;SDS011;8614;48.522;9.206;2022-10-23T15:37:16;9.60;;;9.00;;
16994;SDS011;8614;48.522;9.206;2022-10-23T15:39:43;7.90;;;7.40;;
16994;SDS011;8614;48.522;9.206;2022-10-23T15:42:11;5.80;;;5.40;;
16994;SDS011;8614;48.522;9.206;2022-10-23T15:44:38;9.15;;;8.57;;
16994;SDS011;8614;48.522;9.206;2022-10-23T15:47:06;7.50;;;7.07;;
16994;SDS011;8614;48.522;9.206;2022-10-23T15:49:33;3.50;;;3.30;;
16994;SDS011;8614;48.522;9.206;2022-10-23T16:12:17;8.63;;;8.03;;
16994;SDS011;8614;48.522;9.206;2022-10-23T16:14:44;11.07;;;10.40;;
16994;SDS011;8614;48.522;9.206;2022-10-23T16:17:11;4.30;;;4.00;;
16994;SDS011;8614;48.522;9.206;2022-10-23T16:19:38;9.37;;;8.80;;
16994;SDS011;8614;48.522;9.206;2022-10-23T16:22:06;2.60;;;2.40;;
16994;SDS011;8614;48.522;9.206;2022-10-23T16:24:33;6.47;;;6.07;;
16994;SDS011;8614;48.522;9.206;2022-10-23T16:27:00;9.40;;;8.80;;
16994;SDS011;8614;48.522;9.206;2022-10-23T16:29:28;6.87;;;6.37;;
16994;SDS011;8614;48.522;9.206;2022-10-23T16:31:56;9.17;;;8.67;;
16994;SDS011;8614;48.522;9.206;2022-10-23T16:34:24;2.37;;;2.27;;
16994;SDS011;8614;48.522;9.206;2022-10-23T16:36:51;2.60;;;2.40;;
16994;SDS011;8614;48.522;9.206;2022-10-23T16:39:44;2.77;;;2.50;;
16994;SDS011;8614;48.522;9.206;2022-10-23T16:42:30;7.00;;;6.40;;
16994;SDS011;8614;48.522;9.206;2022-10-23T16:45:17;7.20;;;6.30;;
16994;SDS011;8614;48.522;9.206;2022-10-23T16:47:44;9.37;;;8.63;;
16994;SDS011;8614;48.522;9.206;2022-10-23T16:50:11;6.77;;;6.13;;
16994;SDS011;8614;48.522;9.206;2022-10-23T16:52:39;7.90;;;7.30;;
16994;SDS011;8614;48.522;9.206;2022-10-23T16:55:06;7.83;;;7.13;;